Hatsu Envoy — VSQL9 — position and weather

sailwx.info

Track history (hours):
 
Tides and Currents Weather Stations Pressure Air Temp Water Temp Dewpoint Dewpoint Depression Visibility Wind Speed Wind Dir Waves Ship Positions

Hatsu Envoy

Last reported at 2017-Nov-11 06:02 UTC. Time now 2017-Nov-22 13:10 UTC.
Position N 37°30' W 123°12'.
Warning: this ship's position is 11 days out of date.

Type: Ship (hazmat cat D). MMSI: 235414000.

Date/timePositionNaut miles runAvg speedWind from/ knotsBaromVisibWave heightAir tempDewpointWater temp
2017-Nov-11 06:02N 37°30' W 123°12'2 9.8
2017-Nov-11 05:50N 37°31' W 123°10'3 9.9
2017-Nov-11 05:30N 37°33' W 123°06'5 9.7
2017-Nov-11 05:01N 37°36' W 123°01'5 9.8
2017-Nov-11 04:30N 37°38' W 122°56'5 9.9
2017-Nov-11 04:01N 37°41' W 122°51'5 9.8
2017-Nov-11 03:31N 37°44' W 122°46'5 9.1
2017-Nov-11 03:01N 37°45' W 122°41'611.7
2017-Nov-11 02:30N 37°47' W 122°34'713.4
2017-Nov-11 02:00N 37°51' W 122°26'5 9.6
2017-Nov-11 01:31N 37°48' W 122°21'0 0.6
2017-Nov-11 00:59N 37°49' W 122°20'0 0.0
2017-Nov-11 00:29N 37°49' W 122°20'0 0.0
2017-Nov-10 23:59N 37°49' W 122°20'0 0.0
2017-Nov-10 23:29N 37°49' W 122°20'0 0.0
2017-Nov-10 22:59N 37°49' W 122°20'0 0.0
2017-Nov-10 22:29N 37°49' W 122°20'0 0.0
2017-Nov-10 21:59N 37°49' W 122°20'0 0.0
2017-Nov-10 21:29N 37°49' W 122°20'0 0.0
2017-Nov-10 20:59N 37°49' W 122°20'0 0.0
2017-Nov-10 20:29N 37°49' W 122°20'0 0.0
2017-Nov-10 19:59N 37°49' W 122°20'0 0.0
2017-Nov-10 19:29N 37°49' W 122°20'0 0.0
2017-Nov-10 18:59N 37°49' W 122°20'0 0.0
2017-Nov-10 18:29N 37°49' W 122°20'0 0.0
2017-Nov-10 17:59N 37°49' W 122°20'0 0.0
2017-Nov-10 17:29N 37°49' W 122°20'0 0.0
2017-Nov-10 16:59N 37°49' W 122°20'0 0.0
2017-Nov-10 16:29N 37°49' W 122°20'0 0.0
2017-Nov-10 15:59N 37°49' W 122°20'0 0.0
2017-Nov-10 15:29N 37°49' W 122°20'0 0.0
2017-Nov-10 14:59N 37°49' W 122°20'0 0.0
2017-Nov-10 14:29N 37°49' W 122°20'0 0.0
2017-Nov-10 13:59N 37°49' W 122°20'0 0.0
2017-Nov-10 13:29N 37°49' W 122°20'0 0.0
2017-Nov-10 12:59N 37°49' W 122°20'0 0.0
2017-Nov-10 12:29N 37°49' W 122°20'0 0.0
2017-Nov-10 11:59N 37°49' W 122°20'0 0.0
2017-Nov-10 11:29N 37°49' W 122°20'0 0.0
2017-Nov-10 10:59N 37°49' W 122°20'0 0.0
2017-Nov-10 10:29N 37°49' W 122°20'0 0.0
2017-Nov-10 09:59N 37°49' W 122°20'0 0.0
2017-Nov-10 09:29N 37°49' W 122°20'0 0.0
2017-Nov-10 08:59N 37°49' W 122°20'0 0.0
2017-Nov-10 08:29N 37°49' W 122°20'0 0.0
2017-Nov-10 07:59N 37°49' W 122°20'0 0.0
2017-Nov-10 07:29N 37°49' W 122°20'0 0.0
2017-Nov-10 06:59N 37°49' W 122°20'0 0.0
2017-Nov-10 06:29N 37°49' W 122°20'0 0.0
2017-Nov-10 05:59N 37°49' W 122°20'0 0.0
2017-Nov-10 05:29N 37°49' W 122°20'0 0.0
2017-Nov-10 04:59N 37°49' W 122°20'0 0.0
2017-Nov-10 04:29N 37°49' W 122°20'0 0.0
2017-Nov-10 03:59N 37°49' W 122°20'0 0.0
2017-Nov-10 03:29N 37°49' W 122°20'0 0.0
2017-Nov-10 02:59N 37°49' W 122°20'0 0.0
2017-Nov-10 02:29N 37°49' W 122°20'0 0.0
2017-Nov-10 01:59N 37°49' W 122°20'0 0.0
2017-Nov-10 01:29N 37°49' W 122°20'0 0.0
2017-Nov-10 00:59N 37°49' W 122°20'0 0.0
2017-Nov-10 00:29N 37°49' W 122°20'0 0.0
2017-Nov-10 00:00N 37°49' W 122°20'1 1.1
2017-Nov-09 23:30N 37°49' W 122°20'2 5.0
2017-Nov-09 23:00N 37°48' W 122°23'611.6
2017-Nov-09 22:31N 37°48' W 122°30'714.3
2017-Nov-09 22:00N 37°46' W 122°39'4 8.0
2017-Nov-09 21:30N 37°42' W 122°40'4 8.8
2017-Nov-09 21:00N 37°38' W 122°39'4 9.1
2017-Nov-09 20:31N 37°33' W 122°39'5 9.3
2017-Nov-09 20:00N 37°29' W 122°39'5 9.4
2017-Nov-09 19:30N 37°24' W 122°39'5 9.3
2017-Nov-09 19:00N 37°19' W 122°39'510.6
2017-Nov-09 18:30N 37°14' W 122°38'713.6
2017-Nov-09 18:00N 37°07' W 122°36'713.7
2017-Nov-09 17:30N 37°01' W 122°35'714.1
2017-Nov-09 17:00N 36°54' W 122°32'10015.3
2017-Nov-09 10:30N 35°25' W 121°36'816.6
2017-Nov-09 10:01N 35°18' W 121°31'816.8
2017-Nov-09 09:31N 35°11' W 121°25'917.5
2017-Nov-09 09:01N 35°04' W 121°20'816.9
2017-Nov-09 08:31N 34°57' W 121°14'817.0
2017-Nov-09 08:01N 34°49' W 121°09'917.3
2017-Nov-09 07:30N 34°42' W 121°03'817.1
2017-Nov-09 07:01N 34°35' W 120°58'816.7
2017-Nov-09 06:30N 34°27' W 120°53'816.2
2017-Nov-09 06:00N 34°24' W 120°44'816.4
2017-Nov-09 05:31N 34°22' W 120°34'816.6
2017-Nov-09 05:00N 34°20' W 120°25'816.7
2017-Nov-09 04:30N 34°18' W 120°15'816.7
2017-Nov-09 04:00N 34°16' W 120°05'816.4
2017-Nov-09 03:30N 34°14' W 119°55'816.1
2017-Nov-09 02:59N 34°11' W 119°46'816.1
2017-Nov-09 02:29N 34°09' W 119°36'816.3
2017-Nov-09 02:00N 34°07' W 119°27'815.7
2017-Nov-09 01:31N 34°05' W 119°18'815.6
2017-Nov-09 01:00N 34°02' W 119°10'713.9
2017-Nov-09 00:30N 33°58' W 119°02'611.9
2017-Nov-09 00:00N 33°55' W 118°56'611.8
2017-Nov-08 23:30N 33°52' W 118°50'611.8
2017-Nov-08 23:01N 33°49' W 118°44'611.8
2017-Nov-08 22:30N 33°46' W 118°38'611.7
2017-Nov-08 22:00N 33°44' W 118°31'611.7
2017-Nov-08 21:30N 33°41' W 118°25'611.1
2017-Nov-08 21:01N 33°38' W 118°19'5 9.7
2017-Nov-08 20:30N 33°42' W 118°15'3 0.4
2017-Nov-08 10:37N 33°45' W 118°16'0 0.0
2017-Nov-08 10:25N 33°45' W 118°16'0 0.0
2017-Nov-08 08:01N 33°45' W 118°16'0 0.0
2017-Nov-08 07:55N 33°45' W 118°16'0 0.0
2017-Nov-08 07:25N 33°45' W 118°16'0 0.0
2017-Nov-08 06:55N 33°45' W 118°16'0 0.0
2017-Nov-08 06:25N 33°45' W 118°16'0 0.0
2017-Nov-08 01:37N 33°45' W 118°16'0 0.1
2017-Nov-08 01:25N 33°45' W 118°16'0 0.0
2017-Nov-08 00:55N 33°45' W 118°16'0 0.0
2017-Nov-08 00:25N 33°45' W 118°16'0 0.0
2017-Nov-07 23:49N 33°45' W 118°16'0 0.0
2017-Nov-07 23:25N 33°45' W 118°16'0 0.0
2017-Nov-07 19:37N 33°45' W 118°16'0 0.0
2017-Nov-07 19:19N 33°45' W 118°16'0 0.0
2017-Nov-07 12:43N 33°45' W 118°16'0 0.0
2017-Nov-07 12:25N 33°45' W 118°16'0 0.0
2017-Nov-07 06:43N 33°45' W 118°16'0 0.0
2017-Nov-07 04:13N 33°45' W 118°16'0 0.0
2017-Nov-06 23:31N 33°45' W 118°16'111 5.2
2017-Nov-06 02:17N 33°37' W 120°30'311.7
2017-Nov-06 02:00N 33°37' W 120°33'611.7
2017-Nov-06 01:30N 33°37' W 120°40'611.9
2017-Nov-06 01:00N 33°37' W 120°48'611.8
2017-Nov-06 00:30N 33°37' W 120°55'612.2
2017-Nov-06 00:00N 33°37' W 121°02'917.4
2017-Nov-05 23:30N 33°37' W 121°12'917.5
2017-Nov-05 23:00N 33°36' W 121°23'917.2
2017-Nov-05 22:30N 33°37' W 121°33'  
Track history (hours):
 
Tides and Currents Weather Stations Pressure Air Temp Water Temp Dewpoint Dewpoint Depression Visibility Wind Speed Wind Dir Waves Ship Positions

Hatsu Envoy

Last reported at 2017-Nov-11 06:02 UTC. Time now 2017-Nov-22 13:10 UTC.
Position N 37°30' W 123°12'.
Warning: this ship's position is 11 days out of date.

Type: Ship (hazmat cat D). MMSI: 235414000.

Date/timePositionNaut miles runAvg speedWind from/ knotsBaromVisibWave heightAir tempDewpointWater temp
2017-Nov-11 06:02N 37°30' W 123°12'2 9.8
2017-Nov-11 05:50N 37°31' W 123°10'3 9.9
2017-Nov-11 05:30N 37°33' W 123°06'5 9.7
2017-Nov-11 05:01N 37°36' W 123°01'5 9.8
2017-Nov-11 04:30N 37°38' W 122°56'5 9.9
2017-Nov-11 04:01N 37°41' W 122°51'5 9.8
2017-Nov-11 03:31N 37°44' W 122°46'5 9.1
2017-Nov-11 03:01N 37°45' W 122°41'611.7
2017-Nov-11 02:30N 37°47' W 122°34'713.4
2017-Nov-11 02:00N 37°51' W 122°26'5 9.6
2017-Nov-11 01:31N 37°48' W 122°21'0 0.6
2017-Nov-11 00:59N 37°49' W 122°20'0 0.0
2017-Nov-11 00:29N 37°49' W 122°20'0 0.0
2017-Nov-10 23:59N 37°49' W 122°20'0 0.0
2017-Nov-10 23:29N 37°49' W 122°20'0 0.0
2017-Nov-10 22:59N 37°49' W 122°20'0 0.0
2017-Nov-10 22:29N 37°49' W 122°20'0 0.0
2017-Nov-10 21:59N 37°49' W 122°20'0 0.0
2017-Nov-10 21:29N 37°49' W 122°20'0 0.0
2017-Nov-10 20:59N 37°49' W 122°20'0 0.0
2017-Nov-10 20:29N 37°49' W 122°20'0 0.0
2017-Nov-10 19:59N 37°49' W 122°20'0 0.0
2017-Nov-10 19:29N 37°49' W 122°20'0 0.0
2017-Nov-10 18:59N 37°49' W 122°20'0 0.0
2017-Nov-10 18:29N 37°49' W 122°20'0 0.0
2017-Nov-10 17:59N 37°49' W 122°20'0 0.0
2017-Nov-10 17:29N 37°49' W 122°20'0 0.0
2017-Nov-10 16:59N 37°49' W 122°20'0 0.0
2017-Nov-10 16:29N 37°49' W 122°20'0 0.0
2017-Nov-10 15:59N 37°49' W 122°20'0 0.0
2017-Nov-10 15:29N 37°49' W 122°20'0 0.0
2017-Nov-10 14:59N 37°49' W 122°20'0 0.0
2017-Nov-10 14:29N 37°49' W 122°20'0 0.0
2017-Nov-10 13:59N 37°49' W 122°20'0 0.0
2017-Nov-10 13:29N 37°49' W 122°20'0 0.0
2017-Nov-10 12:59N 37°49' W 122°20'0 0.0
2017-Nov-10 12:29N 37°49' W 122°20'0 0.0
2017-Nov-10 11:59N 37°49' W 122°20'0 0.0
2017-Nov-10 11:29N 37°49' W 122°20'0 0.0
2017-Nov-10 10:59N 37°49' W 122°20'0 0.0
2017-Nov-10 10:29N 37°49' W 122°20'0 0.0
2017-Nov-10 09:59N 37°49' W 122°20'0 0.0
2017-Nov-10 09:29N 37°49' W 122°20'0 0.0
2017-Nov-10 08:59N 37°49' W 122°20'0 0.0
2017-Nov-10 08:29N 37°49' W 122°20'0 0.0
2017-Nov-10 07:59N 37°49' W 122°20'0 0.0
2017-Nov-10 07:29N 37°49' W 122°20'0 0.0
2017-Nov-10 06:59N 37°49' W 122°20'0 0.0
2017-Nov-10 06:29N 37°49' W 122°20'0 0.0
2017-Nov-10 05:59N 37°49' W 122°20'0 0.0
2017-Nov-10 05:29N 37°49' W 122°20'0 0.0
2017-Nov-10 04:59N 37°49' W 122°20'0 0.0
2017-Nov-10 04:29N 37°49' W 122°20'0 0.0
2017-Nov-10 03:59N 37°49' W 122°20'0 0.0
2017-Nov-10 03:29N 37°49' W 122°20'0 0.0
2017-Nov-10 02:59N 37°49' W 122°20'0 0.0
2017-Nov-10 02:29N 37°49' W 122°20'0 0.0
2017-Nov-10 01:59N 37°49' W 122°20'0 0.0
2017-Nov-10 01:29N 37°49' W 122°20'0 0.0
2017-Nov-10 00:59N 37°49' W 122°20'0 0.0
2017-Nov-10 00:29N 37°49' W 122°20'0 0.0
2017-Nov-10 00:00N 37°49' W 122°20'1 1.1
2017-Nov-09 23:30N 37°49' W 122°20'2 5.0
2017-Nov-09 23:00N 37°48' W 122°23'611.6
2017-Nov-09 22:31N 37°48' W 122°30'714.3
2017-Nov-09 22:00N 37°46' W 122°39'4 8.0
2017-Nov-09 21:30N 37°42' W 122°40'4 8.8
2017-Nov-09 21:00N 37°38' W 122°39'4 9.1
2017-Nov-09 20:31N 37°33' W 122°39'5 9.3
2017-Nov-09 20:00N 37°29' W 122°39'5 9.4
2017-Nov-09 19:30N 37°24' W 122°39'5 9.3
2017-Nov-09 19:00N 37°19' W 122°39'510.6
2017-Nov-09 18:30N 37°14' W 122°38'713.6
2017-Nov-09 18:00N 37°07' W 122°36'713.7
2017-Nov-09 17:30N 37°01' W 122°35'714.1
2017-Nov-09 17:00N 36°54' W 122°32'10015.3
2017-Nov-09 10:30N 35°25' W 121°36'816.6
2017-Nov-09 10:01N 35°18' W 121°31'816.8
2017-Nov-09 09:31N 35°11' W 121°25'917.5
2017-Nov-09 09:01N 35°04' W 121°20'816.9
2017-Nov-09 08:31N 34°57' W 121°14'817.0
2017-Nov-09 08:01N 34°49' W 121°09'917.3
2017-Nov-09 07:30N 34°42' W 121°03'817.1
2017-Nov-09 07:01N 34°35' W 120°58'816.7
2017-Nov-09 06:30N 34°27' W 120°53'816.2
2017-Nov-09 06:00N 34°24' W 120°44'816.4
2017-Nov-09 05:31N 34°22' W 120°34'816.6
2017-Nov-09 05:00N 34°20' W 120°25'816.7
2017-Nov-09 04:30N 34°18' W 120°15'816.7
2017-Nov-09 04:00N 34°16' W 120°05'816.4
2017-Nov-09 03:30N 34°14' W 119°55'816.1
2017-Nov-09 02:59N 34°11' W 119°46'816.1
2017-Nov-09 02:29N 34°09' W 119°36'816.3
2017-Nov-09 02:00N 34°07' W 119°27'815.7
2017-Nov-09 01:31N 34°05' W 119°18'815.6
2017-Nov-09 01:00N 34°02' W 119°10'713.9
2017-Nov-09 00:30N 33°58' W 119°02'611.9
2017-Nov-09 00:00N 33°55' W 118°56'611.8
2017-Nov-08 23:30N 33°52' W 118°50'611.8
2017-Nov-08 23:01N 33°49' W 118°44'611.8
2017-Nov-08 22:30N 33°46' W 118°38'611.7
2017-Nov-08 22:00N 33°44' W 118°31'611.7
2017-Nov-08 21:30N 33°41' W 118°25'611.1
2017-Nov-08 21:01N 33°38' W 118°19'5 9.7
2017-Nov-08 20:30N 33°42' W 118°15'3 0.4
2017-Nov-08 10:37N 33°45' W 118°16'0 0.0
2017-Nov-08 10:25N 33°45' W 118°16'0 0.0
2017-Nov-08 08:01N 33°45' W 118°16'0 0.0
2017-Nov-08 07:55N 33°45' W 118°16'0 0.0
2017-Nov-08 07:25N 33°45' W 118°16'0 0.0
2017-Nov-08 06:55N 33°45' W 118°16'0 0.0
2017-Nov-08 06:25N 33°45' W 118°16'0 0.0
2017-Nov-08 01:37N 33°45' W 118°16'0 0.1
2017-Nov-08 01:25N 33°45' W 118°16'0 0.0
2017-Nov-08 00:55N 33°45' W 118°16'0 0.0
2017-Nov-08 00:25N 33°45' W 118°16'0 0.0
2017-Nov-07 23:49N 33°45' W 118°16'0 0.0
2017-Nov-07 23:25N 33°45' W 118°16'0 0.0
2017-Nov-07 19:37N 33°45' W 118°16'0 0.0
2017-Nov-07 19:19N 33°45' W 118°16'0 0.0
2017-Nov-07 12:43N 33°45' W 118°16'0 0.0
2017-Nov-07 12:25N 33°45' W 118°16'0 0.0
2017-Nov-07 06:43N 33°45' W 118°16'0 0.0
2017-Nov-07 04:13N 33°45' W 118°16'0 0.0
2017-Nov-06 23:31N 33°45' W 118°16'111 5.2
2017-Nov-06 02:17N 33°37' W 120°30'311.7
2017-Nov-06 02:00N 33°37' W 120°33'611.7
2017-Nov-06 01:30N 33°37' W 120°40'611.9
2017-Nov-06 01:00N 33°37' W 120°48'611.8
2017-Nov-06 00:30N 33°37' W 120°55'612.2
2017-Nov-06 00:00N 33°37' W 121°02'917.4
2017-Nov-05 23:30N 33°37' W 121°12'917.5
2017-Nov-05 23:00N 33°36' W 121°23'917.2
2017-Nov-05 22:30N 33°37' W 121°33'  

Dump ship's entire track history